sensor_id;sensor_type;location;lat;lon;timestamp;temperature;humidity
30702;DHT22;17451;49.908;7.980;2022-07-22T00:02:06;21.70;99.90
30702;DHT22;17451;49.908;7.980;2022-07-22T00:04:34;21.80;99.90
30702;DHT22;17451;49.908;7.980;2022-07-22T00:07:00;21.80;99.90
30702;DHT22;17451;49.908;7.980;2022-07-22T00:09:26;21.80;99.90
30702;DHT22;17451;49.908;7.980;2022-07-22T00:11:51;21.70;99.90
30702;DHT22;17451;49.908;7.980;2022-07-22T00:14:17;21.70;99.90
30702;DHT22;17451;49.908;7.980;2022-07-22T00:16:43;21.60;99.90
30702;DHT22;17451;49.908;7.980;2022-07-22T00:19:09;21.70;99.90
30702;DHT22;17451;49.908;7.980;2022-07-22T00:21:37;21.60;99.90
30702;DHT22;17451;49.908;7.980;2022-07-22T00:24:03;21.50;99.90
30702;DHT22;17451;49.908;7.980;2022-07-22T00:26:29;21.60;99.90
30702;DHT22;17451;49.908;7.980;2022-07-22T00:28:54;21.60;99.90
30702;DHT22;17451;49.908;7.980;2022-07-22T00:31:20;21.60;99.90
30702;DHT22;17451;49.908;7.980;2022-07-22T00:33:46;21.60;99.90
30702;DHT22;17451;49.908;7.980;2022-07-22T00:36:11;21.60;99.90
30702;DHT22;17451;49.908;7.980;2022-07-22T00:38:38;21.50;99.90
30702;DHT22;17451;49.908;7.980;2022-07-22T00:41:03;21.50;99.90
30702;DHT22;17451;49.908;7.980;2022-07-22T00:43:47;21.50;99.90
30702;DHT22;17451;49.908;7.980;2022-07-22T00:46:15;21.50;99.90
30702;DHT22;17451;49.908;7.980;2022-07-22T00:48:41;21.50;99.90
30702;DHT22;17451;49.908;7.980;2022-07-22T00:51:07;21.50;99.90
30702;DHT22;17451;49.908;7.980;2022-07-22T00:53:35;21.40;99.90
30702;DHT22;17451;49.908;7.980;2022-07-22T00:56:01;21.40;99.90
30702;DHT22;17451;49.908;7.980;2022-07-22T00:58:27;21.30;99.90
30702;DHT22;17451;49.908;7.980;2022-07-22T01:00:56;21.30;99.90
30702;DHT22;17451;49.908;7.980;2022-07-22T01:03:21;21.30;99.90
30702;DHT22;17451;49.908;7.980;2022-07-22T01:05:47;21.30;99.90
30702;DHT22;17451;49.908;7.980;2022-07-22T01:08:16;21.30;99.90
30702;DHT22;17451;49.908;7.980;2022-07-22T01:10:42;21.30;99.90
30702;DHT22;17451;49.908;7.980;2022-07-22T01:13:09;21.30;99.90
30702;DHT22;17451;49.908;7.980;2022-07-22T01:15:35;21.20;99.90
30702;DHT22;17451;49.908;7.980;2022-07-22T01:18:01;21.20;99.90
30702;DHT22;17451;49.908;7.980;2022-07-22T01:20:27;21.20;99.90
30702;DHT22;17451;49.908;7.980;2022-07-22T01:22:52;21.10;99.90
30702;DHT22;17451;49.908;7.980;2022-07-22T01:25:18;21.00;99.90
30702;DHT22;17451;49.908;7.980;2022-07-22T01:27:44;21.00;99.90
30702;DHT22;17451;49.908;7.980;2022-07-22T01:30:09;21.00;99.90
30702;DHT22;17451;49.908;7.980;2022-07-22T01:32:35;20.90;99.90
30702;DHT22;17451;49.908;7.980;2022-07-22T01:35:01;20.90;99.90
30702;DHT22;17451;49.908;7.980;2022-07-22T01:37:27;20.90;99.90
30702;DHT22;17451;49.908;7.980;2022-07-22T01:39:52;21.00;99.90
30702;DHT22;17451;49.908;7.980;2022-07-22T01:42:18;21.00;99.90
30702;DHT22;17451;49.908;7.980;2022-07-22T01:44:44;21.00;99.90
30702;DHT22;17451;49.908;7.980;2022-07-22T01:47:09;21.00;99.90
30702;DHT22;17451;49.908;7.980;2022-07-22T01:49:36;21.00;99.90
30702;DHT22;17451;49.908;7.980;2022-07-22T01:52:08;21.00;99.90
30702;DHT22;17451;49.908;7.980;2022-07-22T01:54:34;21.10;99.90
30702;DHT22;17451;49.908;7.980;2022-07-22T01:56:59;21.00;99.90
30702;DHT22;17451;49.908;7.980;2022-07-22T01:59:25;21.10;99.90
30702;DHT22;17451;49.908;7.980;2022-07-22T02:01:51;21.10;99.90
30702;DHT22;17451;49.908;7.980;2022-07-22T02:04:16;21.20;99.90
30702;DHT22;17451;49.908;7.980;2022-07-22T02:06:42;21.20;99.90
30702;DHT22;17451;49.908;7.980;2022-07-22T02:09:08;21.20;99.90
30702;DHT22;17451;49.908;7.980;2022-07-22T02:11:33;21.20;99.90
30702;DHT22;17451;49.908;7.980;2022-07-22T02:13:59;21.20;99.90
30702;DHT22;17451;49.908;7.980;2022-07-22T02:16:25;21.20;99.90
30702;DHT22;17451;49.908;7.980;2022-07-22T02:18:50;21.20;99.90
30702;DHT22;17451;49.908;7.980;2022-07-22T02:21:16;21.30;99.90
30702;DHT22;17451;49.908;7.980;2022-07-22T02:23:42;21.30;99.90
30702;DHT22;17451;49.908;7.980;2022-07-22T02:26:07;21.30;99.90
30702;DHT22;17451;49.908;7.980;2022-07-22T02:28:33;21.30;99.90
30702;DHT22;17451;49.908;7.980;2022-07-22T02:30:58;21.40;99.90
30702;DHT22;17451;49.908;7.980;2022-07-22T02:33:24;21.40;99.90
30702;DHT22;17451;49.908;7.980;2022-07-22T02:35:50;21.40;99.90
30702;DHT22;17451;49.908;7.980;2022-07-22T02:38:15;21.40;99.90
30702;DHT22;17451;49.908;7.980;2022-07-22T02:40:41;21.40;99.90
30702;DHT22;17451;49.908;7.980;2022-07-22T02:43:07;21.40;99.90
30702;DHT22;17451;49.908;7.980;2022-07-22T02:45:33;21.40;99.90
30702;DHT22;17451;49.908;7.980;2022-07-22T02:47:59;21.40;99.90
30702;DHT22;17451;49.908;7.980;2022-07-22T02:50:25;21.40;99.90
30702;DHT22;17451;49.908;7.980;2022-07-22T02:52:50;21.50;99.90
30702;DHT22;17451;49.908;7.980;2022-07-22T02:55:17;21.50;99.90
30702;DHT22;17451;49.908;7.980;2022-07-22T02:57:43;21.40;99.90
30702;DHT22;17451;49.908;7.980;2022-07-22T03:00:09;21.50;99.90
30702;DHT22;17451;49.908;7.980;2022-07-22T03:02:35;21.50;99.90
30702;DHT22;17451;49.908;7.980;2022-07-22T03:05:01;21.50;99.90
30702;DHT22;17451;49.908;7.980;2022-07-22T03:07:27;21.50;99.90
30702;DHT22;17451;49.908;7.980;2022-07-22T03:09:52;21.50;99.90
30702;DHT22;17451;49.908;7.980;2022-07-22T03:12:18;21.40;99.90
30702;DHT22;17451;49.908;7.980;2022-07-22T03:14:44;21.50;99.90
30702;DHT22;17451;49.908;7.980;2022-07-22T03:17:09;21.50;99.90
30702;DHT22;17451;49.908;7.980;2022-07-22T03:19:35;21.50;99.90
30702;DHT22;17451;49.908;7.980;2022-07-22T03:22:00;21.50;99.90
30702;DHT22;17451;49.908;7.980;2022-07-22T03:24:26;21.50;99.90
30702;DHT22;17451;49.908;7.980;2022-07-22T03:26:52;21.40;99.90
30702;DHT22;17451;49.908;7.980;2022-07-22T03:29:17;21.50;99.90
30702;DHT22;17451;49.908;7.980;2022-07-22T03:31:43;21.50;99.90
30702;DHT22;17451;49.908;7.980;2022-07-22T03:34:08;21.50;99.90
30702;DHT22;17451;49.908;7.980;2022-07-22T03:36:34;21.50;99.90
30702;DHT22;17451;49.908;7.980;2022-07-22T03:39:00;21.60;99.90
30702;DHT22;17451;49.908;7.980;2022-07-22T03:41:25;21.60;99.90
30702;DHT22;17451;49.908;7.980;2022-07-22T03:43:51;21.60;99.90
30702;DHT22;17451;49.908;7.980;2022-07-22T03:46:22;21.60;99.90
30702;DHT22;17451;49.908;7.980;2022-07-22T03:48:47;21.60;99.90
30702;DHT22;17451;49.908;7.980;2022-07-22T03:51:13;21.60;99.90
30702;DHT22;17451;49.908;7.980;2022-07-22T03:53:42;21.60;99.90
30702;DHT22;17451;49.908;7.980;2022-07-22T03:56:08;21.50;99.90
30702;DHT22;17451;49.908;7.980;2022-07-22T03:58:34;21.50;99.90
30702;DHT22;17451;49.908;7.980;2022-07-22T04:00:59;21.50;99.90
30702;DHT22;17451;49.908;7.980;2022-07-22T04:03:25;21.50;99.90
30702;DHT22;17451;49.908;7.980;2022-07-22T04:05:51;21.50;99.90
30702;DHT22;17451;49.908;7.980;2022-07-22T04:08:17;21.40;99.90
30702;DHT22;17451;49.908;7.980;2022-07-22T04:10:43;21.50;99.90
30702;DHT22;17451;49.908;7.980;2022-07-22T04:13:09;21.50;99.90
30702;DHT22;17451;49.908;7.980;2022-07-22T04:15:35;21.50;99.90
30702;DHT22;17451;49.908;7.980;2022-07-22T04:18:00;21.40;99.90
30702;DHT22;17451;49.908;7.980;2022-07-22T04:20:26;21.50;99.90
30702;DHT22;17451;49.908;7.980;2022-07-22T04:22:52;21.40;99.90
30702;DHT22;17451;49.908;7.980;2022-07-22T04:25:18;21.40;99.90
30702;DHT22;17451;49.908;7.980;2022-07-22T04:27:44;21.50;99.90
30702;DHT22;17451;49.908;7.980;2022-07-22T04:30:10;21.50;99.90
30702;DHT22;17451;49.908;7.980;2022-07-22T04:32:35;21.50;99.90
30702;DHT22;17451;49.908;7.980;2022-07-22T04:35:01;21.50;99.90
30702;DHT22;17451;49.908;7.980;2022-07-22T04:37:27;21.60;99.90
30702;DHT22;17451;49.908;7.980;2022-07-22T04:39:52;21.60;99.90
30702;DHT22;17451;49.908;7.980;2022-07-22T04:42:18;21.60;99.90
30702;DHT22;17451;49.908;7.980;2022-07-22T04:44:44;21.60;99.90
30702;DHT22;17451;49.908;7.980;2022-07-22T04:47:10;21.60;99.90
30702;DHT22;17451;49.908;7.980;2022-07-22T04:49:36;21.60;99.90
30702;DHT22;17451;49.908;7.980;2022-07-22T04:52:08;21.60;99.90
30702;DHT22;17451;49.908;7.980;2022-07-22T04:54:34;21.60;99.90
30702;DHT22;17451;49.908;7.980;2022-07-22T04:57:00;21.60;99.90
30702;DHT22;17451;49.908;7.980;2022-07-22T04:59:26;21.60;99.90
30702;DHT22;17451;49.908;7.980;2022-07-22T05:01:51;21.60;99.90
30702;DHT22;17451;49.908;7.980;2022-07-22T05:04:17;21.60;99.90
30702;DHT22;17451;49.908;7.980;2022-07-22T05:06:43;21.70;99.90
30702;DHT22;17451;49.908;7.980;2022-07-22T05:09:09;21.70;99.90
30702;DHT22;17451;49.908;7.980;2022-07-22T05:11:39;21.70;99.90
30702;DHT22;17451;49.908;7.980;2022-07-22T05:14:05;21.70;99.90
30702;DHT22;17451;49.908;7.980;2022-07-22T05:16:35;21.70;99.90
30702;DHT22;17451;49.908;7.980;2022-07-22T05:19:03;21.70;99.90
30702;DHT22;17451;49.908;7.980;2022-07-22T05:21:29;21.70;99.90
30702;DHT22;17451;49.908;7.980;2022-07-22T05:23:55;21.70;99.90
30702;DHT22;17451;49.908;7.980;2022-07-22T05:26:23;21.70;99.90
30702;DHT22;17451;49.908;7.980;2022-07-22T05:28:50;21.70;99.90
30702;DHT22;17451;49.908;7.980;2022-07-22T05:31:15;21.70;99.90
30702;DHT22;17451;49.908;7.980;2022-07-22T05:33:41;21.70;99.90
30702;DHT22;17451;49.908;7.980;2022-07-22T05:36:07;21.80;99.90
30702;DHT22;17451;49.908;7.980;2022-07-22T05:38:35;21.80;99.90
30702;DHT22;17451;49.908;7.980;2022-07-22T05:41:01;21.80;99.90
30702;DHT22;17451;49.908;7.980;2022-07-22T05:43:27;21.90;99.90
30702;DHT22;17451;49.908;7.980;2022-07-22T05:45:52;22.00;99.90
30702;DHT22;17451;49.908;7.980;2022-07-22T05:48:18;22.00;99.90
30702;DHT22;17451;49.908;7.980;2022-07-22T05:50:44;22.00;99.90
30702;DHT22;17451;49.908;7.980;2022-07-22T05:53:09;22.10;99.90
30702;DHT22;17451;49.908;7.980;2022-07-22T05:55:35;22.00;99.90
30702;DHT22;17451;49.908;7.980;2022-07-22T05:58:01;22.00;99.90
30702;DHT22;17451;49.908;7.980;2022-07-22T06:00:27;22.00;99.90
30702;DHT22;17451;49.908;7.980;2022-07-22T06:02:53;22.00;99.90
30702;DHT22;17451;49.908;7.980;2022-07-22T06:05:19;22.00;99.90
30702;DHT22;17451;49.908;7.980;2022-07-22T06:07:44;22.00;99.90
30702;DHT22;17451;49.908;7.980;2022-07-22T06:10:10;22.00;99.90
30702;DHT22;17451;49.908;7.980;2022-07-22T06:12:36;22.10;99.90
30702;DHT22;17451;49.908;7.980;2022-07-22T06:15:04;22.10;99.90
30702;DHT22;17451;49.908;7.980;2022-07-22T06:17:30;22.00;99.90
30702;DHT22;17451;49.908;7.980;2022-07-22T06:19:55;22.00;99.90
30702;DHT22;17451;49.908;7.980;2022-07-22T06:22:21;22.00;99.90
30702;DHT22;17451;49.908;7.980;2022-07-22T06:24:47;22.00;99.90
30702;DHT22;17451;49.908;7.980;2022-07-22T06:27:13;22.00;99.90
30702;DHT22;17451;49.908;7.980;2022-07-22T06:29:39;22.10;99.90
30702;DHT22;17451;49.908;7.980;2022-07-22T06:32:06;22.10;99.90
30702;DHT22;17451;49.908;7.980;2022-07-22T06:34:32;22.20;99.90
30702;DHT22;17451;49.908;7.980;2022-07-22T06:36:57;22.20;99.90
30702;DHT22;17451;49.908;7.980;2022-07-22T06:39:23;22.30;99.90
30702;DHT22;17451;49.908;7.980;2022-07-22T06:41:49;22.30;99.90
30702;DHT22;17451;49.908;7.980;2022-07-22T06:44:14;22.30;99.90
30702;DHT22;17451;49.908;7.980;2022-07-22T06:46:40;22.40;99.90
30702;DHT22;17451;49.908;7.980;2022-07-22T06:49:06;22.50;99.90
30702;DHT22;17451;49.908;7.980;2022-07-22T06:51:32;22.50;99.90
30702;DHT22;17451;49.908;7.980;2022-07-22T06:53:59;22.50;99.90
30702;DHT22;17451;49.908;7.980;2022-07-22T06:56:25;22.50;99.90
30702;DHT22;17451;49.908;7.980;2022-07-22T06:58:50;22.40;99.90
30702;DHT22;17451;49.908;7.980;2022-07-22T07:01:16;22.50;99.90
30702;DHT22;17451;49.908;7.980;2022-07-22T07:03:41;22.60;99.90
30702;DHT22;17451;49.908;7.980;2022-07-22T07:06:08;22.70;99.90
30702;DHT22;17451;49.908;7.980;2022-07-22T07:08:36;22.80;99.90
30702;DHT22;17451;49.908;7.980;2022-07-22T07:11:02;22.80;99.90
30702;DHT22;17451;49.908;7.980;2022-07-22T07:13:28;23.00;99.90
30702;DHT22;17451;49.908;7.980;2022-07-22T07:15:54;23.00;99.90
30702;DHT22;17451;49.908;7.980;2022-07-22T07:18:20;23.10;99.90
30702;DHT22;17451;49.908;7.980;2022-07-22T07:20:46;23.10;99.90
30702;DHT22;17451;49.908;7.980;2022-07-22T07:23:11;23.00;99.90
30702;DHT22;17451;49.908;7.980;2022-07-22T07:25:37;23.10;99.90
30702;DHT22;17451;49.908;7.980;2022-07-22T07:28:03;23.20;99.90
30702;DHT22;17451;49.908;7.980;2022-07-22T07:30:28;23.20;99.90
30702;DHT22;17451;49.908;7.980;2022-07-22T07:32:54;23.30;99.90
30702;DHT22;17451;49.908;7.980;2022-07-22T07:35:19;23.30;99.90
30702;DHT22;17451;49.908;7.980;2022-07-22T07:37:45;23.40;99.90
30702;DHT22;17451;49.908;7.980;2022-07-22T07:40:11;23.50;99.90
30702;DHT22;17451;49.908;7.980;2022-07-22T07:42:37;23.40;99.90
30702;DHT22;17451;49.908;7.980;2022-07-22T07:45:03;23.60;99.90
30702;DHT22;17451;49.908;7.980;2022-07-22T07:47:29;23.70;99.90
30702;DHT22;17451;49.908;7.980;2022-07-22T07:49:55;23.90;99.90
30702;DHT22;17451;49.908;7.980;2022-07-22T07:52:22;24.10;99.90
30702;DHT22;17451;49.908;7.980;2022-07-22T07:54:48;24.20;99.90
30702;DHT22;17451;49.908;7.980;2022-07-22T07:57:14;24.30;99.90
30702;DHT22;17451;49.908;7.980;2022-07-22T07:59:39;24.20;99.90
30702;DHT22;17451;49.908;7.980;2022-07-22T08:02:05;24.20;99.90
30702;DHT22;17451;49.908;7.980;2022-07-22T08:04:31;24.20;99.90
30702;DHT22;17451;49.908;7.980;2022-07-22T08:06:57;24.40;99.90
30702;DHT22;17451;49.908;7.980;2022-07-22T08:09:23;24.40;99.90
30702;DHT22;17451;49.908;7.980;2022-07-22T08:11:49;24.40;99.90
30702;DHT22;17451;49.908;7.980;2022-07-22T08:14:15;24.40;99.90
30702;DHT22;17451;49.908;7.980;2022-07-22T08:16:41;24.60;99.90
30702;DHT22;17451;49.908;7.980;2022-07-22T08:19:06;24.70;99.90
30702;DHT22;17451;49.908;7.980;2022-07-22T08:21:32;24.60;99.90
30702;DHT22;17451;49.908;7.980;2022-07-22T08:23:58;24.60;99.90
30702;DHT22;17451;49.908;7.980;2022-07-22T08:26:23;24.70;99.90
30702;DHT22;17451;49.908;7.980;2022-07-22T08:28:51;24.60;99.90
30702;DHT22;17451;49.908;7.980;2022-07-22T08:31:17;24.80;99.90
30702;DHT22;17451;49.908;7.980;2022-07-22T08:42:25;25.30;99.90
30702;DHT22;17451;49.908;7.980;2022-07-22T08:45:20;25.70;99.70
30702;DHT22;17451;49.908;7.980;2022-07-22T09:06:39;27.00;96.70
30702;DHT22;17451;49.908;7.980;2022-07-22T09:12:13;27.50;95.30
30702;DHT22;17451;49.908;7.980;2022-07-22T09:26:40;28.90;91.60
30702;DHT22;17451;49.908;7.980;2022-07-22T09:40:53;30.00;89.10
30702;DHT22;17451;49.908;7.980;2022-07-22T09:47:00;30.40;85.90
30702;DHT22;17451;49.908;7.980;2022-07-22T10:08:25;30.90;80.30
30702;DHT22;17451;49.908;7.980;2022-07-22T10:11:17;31.10;80.80
30702;DHT22;17451;49.908;7.980;2022-07-22T10:13:54;31.20;80.70
30702;DHT22;17451;49.908;7.980;2022-07-22T10:16:40;31.50;79.80
30702;DHT22;17451;49.908;7.980;2022-07-22T10:45:33;32.70;69.90
30702;DHT22;17451;49.908;7.980;2022-07-22T11:15:13;32.90;65.40
30702;DHT22;17451;49.908;7.980;2022-07-22T11:51:52;37.10;55.20
30702;DHT22;17451;49.908;7.980;2022-07-22T12:43:34;45.60;41.60
30702;DHT22;17451;49.908;7.980;2022-07-22T12:46:09;47.00;40.00
30702;DHT22;17451;49.908;7.980;2022-07-22T12:48:52;47.40;38.80
30702;DHT22;17451;49.908;7.980;2022-07-22T12:51:28;47.50;38.40
30702;DHT22;17451;49.908;7.980;2022-07-22T12:56:39;47.20;38.70
30702;DHT22;17451;49.908;7.980;2022-07-22T12:59:06;46.90;37.90
30702;DHT22;17451;49.908;7.980;2022-07-22T13:01:42;47.40;37.60
30702;DHT22;17451;49.908;7.980;2022-07-22T13:04:11;47.90;37.20
30702;DHT22;17451;49.908;7.980;2022-07-22T13:06:50;47.20;36.30
30702;DHT22;17451;49.908;7.980;2022-07-22T13:09:16;47.10;36.80
30702;DHT22;17451;49.908;7.980;2022-07-22T13:11:48;47.40;36.50
30702;DHT22;17451;49.908;7.980;2022-07-22T13:14:13;44.90;38.70
30702;DHT22;17451;49.908;7.980;2022-07-22T13:16:45;44.80;38.90
30702;DHT22;17451;49.908;7.980;2022-07-22T13:19:21;45.20;38.70
30702;DHT22;17451;49.908;7.980;2022-07-22T13:21:47;46.00;37.50
30702;DHT22;17451;49.908;7.980;2022-07-22T13:24:45;46.60;36.70
30702;DHT22;17451;49.908;7.980;2022-07-22T13:27:13;46.90;36.50
30702;DHT22;17451;49.908;7.980;2022-07-22T13:29:44;46.40;36.80
30702;DHT22;17451;49.908;7.980;2022-07-22T13:32:10;46.90;36.80
30702;DHT22;17451;49.908;7.980;2022-07-22T13:34:59;47.00;36.20
30702;DHT22;17451;49.908;7.980;2022-07-22T13:37:28;46.40;36.30
30702;DHT22;17451;49.908;7.980;2022-07-22T13:39:56;46.40;36.30
30702;DHT22;17451;49.908;7.980;2022-07-22T13:42:22;46.20;36.60
30702;DHT22;17451;49.908;7.980;2022-07-22T13:44:48;46.10;37.60
30702;DHT22;17451;49.908;7.980;2022-07-22T13:47:23;45.00;37.10
30702;DHT22;17451;49.908;7.980;2022-07-22T13:49:52;44.00;38.20
30702;DHT22;17451;49.908;7.980;2022-07-22T13:52:21;42.60;39.70
30702;DHT22;17451;49.908;7.980;2022-07-22T13:54:49;40.80;40.80
30702;DHT22;17451;49.908;7.980;2022-07-22T13:57:18;39.00;42.90
30702;DHT22;17451;49.908;7.980;2022-07-22T13:59:44;38.20;44.10
30702;DHT22;17451;49.908;7.980;2022-07-22T14:02:10;37.30;45.50
30702;DHT22;17451;49.908;7.980;2022-07-22T14:04:38;36.60;46.10
30702;DHT22;17451;49.908;7.980;2022-07-22T14:07:07;35.90;47.00
30702;DHT22;17451;49.908;7.980;2022-07-22T14:09:33;35.60;47.20
30702;DHT22;17451;49.908;7.980;2022-07-22T14:11:58;35.30;47.50
30702;DHT22;17451;49.908;7.980;2022-07-22T14:14:27;34.80;47.80
30702;DHT22;17451;49.908;7.980;2022-07-22T14:17:01;34.30;48.80
30702;DHT22;17451;49.908;7.980;2022-07-22T14:19:30;34.10;49.10
30702;DHT22;17451;49.908;7.980;2022-07-22T14:21:55;34.10;50.30
30702;DHT22;17451;49.908;7.980;2022-07-22T14:24:21;34.20;50.20
30702;DHT22;17451;49.908;7.980;2022-07-22T14:26:48;34.40;49.60
30702;DHT22;17451;49.908;7.980;2022-07-22T14:29:13;34.50;50.20
30702;DHT22;17451;49.908;7.980;2022-07-22T14:31:39;34.80;50.50
30702;DHT22;17451;49.908;7.980;2022-07-22T14:34:05;35.00;49.60
30702;DHT22;17451;49.908;7.980;2022-07-22T14:36:30;35.10;49.00
30702;DHT22;17451;49.908;7.980;2022-07-22T14:38:56;35.20;48.50
30702;DHT22;17451;49.908;7.980;2022-07-22T14:41:22;35.20;48.40
30702;DHT22;17451;49.908;7.980;2022-07-22T14:43:47;35.10;48.70
30702;DHT22;17451;49.908;7.980;2022-07-22T14:46:22;34.90;47.80
30702;DHT22;17451;49.908;7.980;2022-07-22T14:48:50;34.50;48.70
30702;DHT22;17451;49.908;7.980;2022-07-22T14:51:18;34.40;50.40
30702;DHT22;17451;49.908;7.980;2022-07-22T14:53:45;34.50;50.50
30702;DHT22;17451;49.908;7.980;2022-07-22T14:56:10;34.60;50.00
30702;DHT22;17451;49.908;7.980;2022-07-22T14:58:36;34.60;50.30
30702;DHT22;17451;49.908;7.980;2022-07-22T15:01:04;34.70;50.30
30702;DHT22;17451;49.908;7.980;2022-07-22T15:03:30;34.80;50.40
30702;DHT22;17451;49.908;7.980;2022-07-22T15:05:56;34.80;50.30
30702;DHT22;17451;49.908;7.980;2022-07-22T15:08:21;34.80;49.70
30702;DHT22;17451;49.908;7.980;2022-07-22T15:10:47;34.60;48.80
30702;DHT22;17451;49.908;7.980;2022-07-22T15:13:13;34.50;49.10
30702;DHT22;17451;49.908;7.980;2022-07-22T15:15:39;34.40;50.50
30702;DHT22;17451;49.908;7.980;2022-07-22T15:18:13;34.40;50.40
30702;DHT22;17451;49.908;7.980;2022-07-22T15:20:42;34.30;50.60
30702;DHT22;17451;49.908;7.980;2022-07-22T15:23:10;34.10;50.00
30702;DHT22;17451;49.908;7.980;2022-07-22T15:25:38;34.10;50.70
30702;DHT22;17451;49.908;7.980;2022-07-22T15:28:04;34.00;50.80
30702;DHT22;17451;49.908;7.980;2022-07-22T15:30:34;34.00;50.70
30702;DHT22;17451;49.908;7.980;2022-07-22T15:33:00;33.90;50.60
30702;DHT22;17451;49.908;7.980;2022-07-22T15:35:28;34.00;49.30
30702;DHT22;17451;49.908;7.980;2022-07-22T15:37:54;33.90;49.40
30702;DHT22;17451;49.908;7.980;2022-07-22T15:40:20;33.80;50.30
30702;DHT22;17451;49.908;7.980;2022-07-22T15:42:49;33.80;50.70
30702;DHT22;17451;49.908;7.980;2022-07-22T15:45:40;33.80;50.30
30702;DHT22;17451;49.908;7.980;2022-07-22T15:48:08;33.80;51.00
30702;DHT22;17451;49.908;7.980;2022-07-22T15:50:40;33.80;51.10
30702;DHT22;17451;49.908;7.980;2022-07-22T15:53:06;33.30;50.40
30702;DHT22;17451;49.908;7.980;2022-07-22T15:55:31;32.80;51.20
30702;DHT22;17451;49.908;7.980;2022-07-22T15:57:57;32.40;51.50
30702;DHT22;17451;49.908;7.980;2022-07-22T16:00:44;32.40;51.90
30702;DHT22;17451;49.908;7.980;2022-07-22T16:03:13;32.30;52.30
30702;DHT22;17451;49.908;7.980;2022-07-22T16:05:39;32.20;52.40
30702;DHT22;17451;49.908;7.980;2022-07-22T16:11:20;32.50;53.00
30702;DHT22;17451;49.908;7.980;2022-07-22T16:14:11;32.60;53.30
30702;DHT22;17451;49.908;7.980;2022-07-22T16:19:49;32.70;52.80
30702;DHT22;17451;49.908;7.980;2022-07-22T16:30:09;32.80;52.90
30702;DHT22;17451;49.908;7.980;2022-07-22T16:33:10;32.80;51.80
30702;DHT22;17451;49.908;7.980;2022-07-22T16:45:10;32.60;53.50
30702;DHT22;17451;49.908;7.980;2022-07-22T16:47:58;32.50;52.80
30702;DHT22;17451;49.908;7.980;2022-07-22T16:53:41;32.40;52.40
30702;DHT22;17451;49.908;7.980;2022-07-22T16:56:09;32.40;52.30
30702;DHT22;17451;49.908;7.980;2022-07-22T16:58:34;32.30;53.00
30702;DHT22;17451;49.908;7.980;2022-07-22T17:01:03;32.30;53.00
30702;DHT22;17451;49.908;7.980;2022-07-22T17:03:29;32.20;53.10
30702;DHT22;17451;49.908;7.980;2022-07-22T17:06:02;32.10;52.90
30702;DHT22;17451;49.908;7.980;2022-07-22T17:08:37;32.10;54.00
30702;DHT22;17451;49.908;7.980;2022-07-22T17:11:06;32.20;53.90
30702;DHT22;17451;49.908;7.980;2022-07-22T17:13:40;32.20;54.60
30702;DHT22;17451;49.908;7.980;2022-07-22T17:16:31;32.20;53.40
30702;DHT22;17451;49.908;7.980;2022-07-22T17:19:02;32.20;54.20
30702;DHT22;17451;49.908;7.980;2022-07-22T17:21:30;32.30;53.20
30702;DHT22;17451;49.908;7.980;2022-07-22T17:23:56;32.20;52.90
30702;DHT22;17451;49.908;7.980;2022-07-22T17:26:31;32.20;53.40
30702;DHT22;17451;49.908;7.980;2022-07-22T17:28:59;32.30;54.00
30702;DHT22;17451;49.908;7.980;2022-07-22T17:31:27;32.40;53.20
30702;DHT22;17451;49.908;7.980;2022-07-22T17:33:53;32.50;55.00
30702;DHT22;17451;49.908;7.980;2022-07-22T17:36:21;32.50;53.40
30702;DHT22;17451;49.908;7.980;2022-07-22T17:38:49;32.40;52.90
30702;DHT22;17451;49.908;7.980;2022-07-22T17:41:32;32.40;54.80
30702;DHT22;17451;49.908;7.980;2022-07-22T17:44:08;32.30;54.10
30702;DHT22;17451;49.908;7.980;2022-07-22T17:46:41;32.20;53.40
30702;DHT22;17451;49.908;7.980;2022-07-22T17:49:10;32.10;53.60
30702;DHT22;17451;49.908;7.980;2022-07-22T17:51:36;32.10;53.60
30702;DHT22;17451;49.908;7.980;2022-07-22T17:54:02;32.00;53.60
30702;DHT22;17451;49.908;7.980;2022-07-22T17:56:27;32.00;56.20
30702;DHT22;17451;49.908;7.980;2022-07-22T17:58:53;31.90;54.70
30702;DHT22;17451;49.908;7.980;2022-07-22T18:01:19;31.90;56.40
30702;DHT22;17451;49.908;7.980;2022-07-22T18:03:44;31.80;56.70
30702;DHT22;17451;49.908;7.980;2022-07-22T18:06:10;31.70;55.40
30702;DHT22;17451;49.908;7.980;2022-07-22T18:08:36;31.70;56.00
30702;DHT22;17451;49.908;7.980;2022-07-22T18:11:01;31.60;56.50
30702;DHT22;17451;49.908;7.980;2022-07-22T18:13:27;31.60;56.70
30702;DHT22;17451;49.908;7.980;2022-07-22T18:15:53;31.60;56.00
30702;DHT22;17451;49.908;7.980;2022-07-22T18:18:19;31.60;56.40
30702;DHT22;17451;49.908;7.980;2022-07-22T18:20:46;31.60;56.60
30702;DHT22;17451;49.908;7.980;2022-07-22T18:23:12;31.50;57.20
30702;DHT22;17451;49.908;7.980;2022-07-22T18:25:37;31.50;58.10
30702;DHT22;17451;49.908;7.980;2022-07-22T18:28:04;31.50;57.90
30702;DHT22;17451;49.908;7.980;2022-07-22T18:30:30;31.40;57.60
30702;DHT22;17451;49.908;7.980;2022-07-22T18:32:55;31.30;58.10
30702;DHT22;17451;49.908;7.980;2022-07-22T18:35:21;31.20;58.20
30702;DHT22;17451;49.908;7.980;2022-07-22T18:37:46;31.20;58.50
30702;DHT22;17451;49.908;7.980;2022-07-22T18:40:12;31.00;58.80
30702;DHT22;17451;49.908;7.980;2022-07-22T18:42:38;31.00;59.30
30702;DHT22;17451;49.908;7.980;2022-07-22T18:45:04;30.80;59.40
30702;DHT22;17451;49.908;7.980;2022-07-22T18:47:29;30.80;59.50
30702;DHT22;17451;49.908;7.980;2022-07-22T18:49:55;30.70;59.70
30702;DHT22;17451;49.908;7.980;2022-07-22T18:52:20;30.60;59.70
30702;DHT22;17451;49.908;7.980;2022-07-22T18:54:46;30.50;60.00
30702;DHT22;17451;49.908;7.980;2022-07-22T18:57:12;30.40;59.90
30702;DHT22;17451;49.908;7.980;2022-07-22T18:59:37;30.40;61.10
30702;DHT22;17451;49.908;7.980;2022-07-22T19:02:03;30.30;61.00
30702;DHT22;17451;49.908;7.980;2022-07-22T19:04:28;30.30;60.60
30702;DHT22;17451;49.908;7.980;2022-07-22T19:06:54;30.30;61.00
30702;DHT22;17451;49.908;7.980;2022-07-22T19:09:20;30.20;61.90
30702;DHT22;17451;49.908;7.980;2022-07-22T19:11:46;30.10;62.30
30702;DHT22;17451;49.908;7.980;2022-07-22T19:14:11;30.00;62.70
30702;DHT22;17451;49.908;7.980;2022-07-22T19:16:37;29.90;62.90
30702;DHT22;17451;49.908;7.980;2022-07-22T19:19:02;29.80;63.80
30702;DHT22;17451;49.908;7.980;2022-07-22T19:21:28;29.70;63.80
30702;DHT22;17451;49.908;7.980;2022-07-22T19:23:54;29.60;63.70
30702;DHT22;17451;49.908;7.980;2022-07-22T19:26:20;29.60;65.00
30702;DHT22;17451;49.908;7.980;2022-07-22T19:28:45;29.40;65.50
30702;DHT22;17451;49.908;7.980;2022-07-22T19:31:11;29.30;65.60
30702;DHT22;17451;49.908;7.980;2022-07-22T19:33:37;29.30;65.10
30702;DHT22;17451;49.908;7.980;2022-07-22T19:36:02;29.20;64.80